Time;durP1;ratioP1;P1;durP2;ratioP2;P2;SDS_P1;SDS_P2;PMS_P1;PMS_P2;Temp;Humidity;BMP_temperature;BMP_pressure;BME280_temperature;BME280_humidity;BME280_pressure;Samples;Min_cycle;Max_cycle;Signal;HPM_P1;HPM_P2
2023/12/16 00:02:04;;;;;;;10.17;6.50;;;10.10;99.90;;;;;;5041106;28;20203;-56
2023/12/16 00:04:30;;;;;;;12.80;6.80;;;10.10;99.90;;;;;;5042786;28;20217;-55
2023/12/16 00:06:58;;;;;;;8.47;6.83;;;10.10;99.90;;;;;;5041134;28;20255;-55
2023/12/16 00:09:25;;;;;;;11.73;7.43;;;10.10;99.90;;;;;;5038744;28;20230;-55
2023/12/16 00:11:53;;;;;;;6.80;5.97;;;10.10;99.90;;;;;;5039534;28;20222;-56
2023/12/16 00:14:19;;;;;;;8.47;5.87;;;10.10;99.90;;;;;;5042522;28;20202;-54
2023/12/16 00:16:47;;;;;;;8.07;6.83;;;10.10;99.90;;;;;;5042643;28;20297;-54
2023/12/16 00:19:13;;;;;;;8.50;5.90;;;10.10;99.90;;;;;;5038771;28;20344;-54
2023/12/16 00:21:40;;;;;;;8.07;6.87;;;10.10;99.90;;;;;;5038976;28;20248;-54
2023/12/16 00:24:08;;;;;;;9.73;6.67;;;10.10;99.90;;;;;;5041499;28;20214;-54
2023/12/16 00:26:35;;;;;;;9.17;7.27;;;10.10;99.90;;;;;;5042540;28;20213;-54
2023/12/16 00:29:01;;;;;;;8.90;6.80;;;10.20;99.90;;;;;;5040675;28;20222;-54
2023/12/16 00:31:28;;;;;;;9.73;7.30;;;10.20;99.90;;;;;;5039503;28;20226;-55
2023/12/16 00:33:55;;;;;;;10.17;7.37;;;10.10;99.90;;;;;;5039828;28;20260;-54
2023/12/16 00:36:22;;;;;;;9.00;7.00;;;10.00;99.90;;;;;;5042385;28;20201;-54
2023/12/16 00:38:48;;;;;;;9.63;6.60;;;10.00;99.90;;;;;;5041988;28;20252;-54
2023/12/16 00:41:16;;;;;;;8.63;6.63;;;10.00;99.90;;;;;;5038859;28;20281;-54
2023/12/16 00:43:43;;;;;;;8.77;6.33;;;10.00;99.90;;;;;;5039009;28;20213;-54
2023/12/16 00:46:10;;;;;;;8.73;6.60;;;10.10;99.90;;;;;;5041582;28;20594;-54
2023/12/16 00:48:36;;;;;;;8.90;6.50;;;10.20;99.90;;;;;;5042195;28;20229;-55
2023/12/16 00:51:03;;;;;;;9.83;6.60;;;10.20;99.90;;;;;;5040226;28;20209;-55
2023/12/16 00:53:30;;;;;;;8.00;7.00;;;10.10;99.90;;;;;;5038625;28;20258;-54
2023/12/16 00:55:57;;;;;;;8.80;6.73;;;10.10;99.90;;;;;;5039774;28;20310;-55
2023/12/16 00:58:24;;;;;;;8.97;6.60;;;10.10;99.90;;;;;;5042019;28;20222;-54
2023/12/16 01:00:51;;;;;;;8.20;6.63;;;10.10;99.90;;;;;;5041654;28;20202;-54
2023/12/16 01:03:18;;;;;;;10.43;6.90;;;10.10;99.90;;;;;;5042037;28;20202;-54
2023/12/16 01:05:44;;;;;;;9.73;7.17;;;10.20;99.90;;;;;;5042417;28;20260;-56
2023/12/16 01:08:11;;;;;;;10.10;7.13;;;10.20;99.90;;;;;;5045044;28;20229;-55
2023/12/16 01:10:38;;;;;;;9.00;6.63;;;10.20;99.90;;;;;;5045841;28;20210;-55
2023/12/16 01:13:05;;;;;;;9.60;7.20;;;10.20;99.90;;;;;;5043545;28;20229;-56
2023/12/16 01:15:33;;;;;;;9.90;7.47;;;10.20;99.90;;;;;;5042343;28;20292;-54
2023/12/16 01:18:00;;;;;;;7.97;6.87;;;10.20;99.90;;;;;;5043238;28;20230;-54
2023/12/16 01:20:26;;;;;;;9.13;7.07;;;10.20;99.90;;;;;;5045688;28;20340;-54
2023/12/16 01:22:53;;;;;;;8.47;7.27;;;10.10;99.90;;;;;;5045188;28;20256;-54
2023/12/16 01:25:20;;;;;;;9.07;7.07;;;10.00;99.90;;;;;;5042292;28;20202;-54
2023/12/16 01:27:47;;;;;;;7.47;6.67;;;10.00;99.90;;;;;;5041925;28;20238;-54
2023/12/16 01:30:14;;;;;;;8.87;6.87;;;10.00;99.90;;;;;;5044837;28;20201;-54
2023/12/16 01:32:42;;;;;;;7.97;6.63;;;10.00;99.90;;;;;;5045109;28;20225;-55
2023/12/16 01:35:09;;;;;;;8.33;7.27;;;10.00;99.90;;;;;;5042961;28;20260;-56
2023/12/16 01:37:36;;;;;;;8.60;6.90;;;10.00;99.90;;;;;;5041716;28;20716;-54
2023/12/16 01:40:03;;;;;;;10.60;6.67;;;10.00;99.90;;;;;;5043357;28;20210;-54
2023/12/16 01:42:30;;;;;;;8.90;6.60;;;10.10;99.90;;;;;;5045178;28;20289;-54
2023/12/16 01:44:57;;;;;;;9.47;7.57;;;10.10;99.90;;;;;;5044108;28;20236;-54
2023/12/16 01:47:23;;;;;;;8.87;7.10;;;10.00;99.90;;;;;;5041409;28;20639;-57
2023/12/16 01:49:51;;;;;;;9.63;6.80;;;9.90;99.90;;;;;;5042562;28;20210;-56
2023/12/16 01:52:19;;;;;;;8.50;6.90;;;9.90;99.90;;;;;;5045676;28;20271;-55
2023/12/16 01:54:46;;;;;;;8.90;7.23;;;9.90;99.90;;;;;;5045529;28;20209;-54
2023/12/16 01:57:13;;;;;;;10.50;7.80;;;9.90;99.90;;;;;;5042631;28;20209;-54
2023/12/16 01:59:39;;;;;;;7.77;6.93;;;9.90;99.90;;;;;;5041702;28;20257;-54
2023/12/16 02:02:07;;;;;;;9.37;7.27;;;9.90;99.90;;;;;;5043572;28;20667;-54
2023/12/16 02:04:37;;;;;;;9.53;7.40;;;9.90;99.90;;;;;;5044824;28;20202;-55
2023/12/16 02:07:05;;;;;;;9.80;7.57;;;9.90;99.90;;;;;;5043146;28;20267;-54
2023/12/16 02:09:32;;;;;;;10.83;7.50;;;10.00;99.90;;;;;;5040721;28;20651;-55
2023/12/16 02:11:59;;;;;;;10.47;7.60;;;10.00;99.90;;;;;;5042020;28;20253;-55
2023/12/16 02:14:25;;;;;;;8.07;7.20;;;10.00;99.90;;;;;;5043681;28;20217;-54
2023/12/16 02:16:52;;;;;;;11.33;7.97;;;10.00;99.90;;;;;;5044481;28;20216;-58
2023/12/16 02:19:25;;;;;;;10.90;7.00;;;9.90;99.90;;;;;;5040937;28;20276;-54
2023/12/16 02:21:52;;;;;;;10.77;7.17;;;9.90;99.90;;;;;;5041159;28;20705;-54
2023/12/16 02:24:20;;;;;;;9.57;7.17;;;9.90;99.90;;;;;;5040866;28;20257;-55
2023/12/16 02:26:46;;;;;;;10.77;6.90;;;9.80;99.90;;;;;;5040920;28;20209;-55
2023/12/16 02:29:13;;;;;;;9.63;7.10;;;9.70;99.90;;;;;;5043609;28;20233;-55
2023/12/16 02:31:40;;;;;;;9.17;7.73;;;9.60;99.90;;;;;;5044532;28;20206;-54
2023/12/16 02:34:06;;;;;;;10.27;7.60;;;9.50;99.90;;;;;;5042075;28;20213;-55
2023/12/16 02:36:33;;;;;;;10.67;7.73;;;9.40;99.90;;;;;;5040766;28;20210;-55
2023/12/16 02:39:00;;;;;;;8.53;7.20;;;9.40;99.90;;;;;;5041385;28;20229;-54
2023/12/16 02:41:28;;;;;;;9.67;7.80;;;9.40;99.90;;;;;;5044350;28;20205;-56
2023/12/16 02:43:54;;;;;;;13.43;7.50;;;9.40;99.90;;;;;;5043813;28;20206;-56
2023/12/16 02:46:21;;;;;;;9.67;7.57;;;9.40;99.90;;;;;;5040698;28;20206;-55
2023/12/16 02:48:48;;;;;;;11.20;7.73;;;9.40;99.90;;;;;;5040181;28;20222;-54
2023/12/16 02:51:18;;;;;;;9.87;7.73;;;9.40;99.90;;;;;;5043271;28;20205;-54
2023/12/16 02:53:45;;;;;;;10.00;7.67;;;9.40;99.90;;;;;;5043376;28;20265;-55
2023/12/16 02:56:12;;;;;;;9.87;8.10;;;9.40;99.90;;;;;;5041049;28;20750;-55
2023/12/16 02:58:40;;;;;;;11.43;8.07;;;9.30;99.90;;;;;;5040029;28;20234;-55
2023/12/16 03:01:07;;;;;;;10.33;7.67;;;9.30;99.90;;;;;;5042256;28;20202;-54
2023/12/16 03:03:33;;;;;;;9.33;7.20;;;9.30;99.90;;;;;;5043642;28;20209;-54
2023/12/16 03:06:05;;;;;;;9.83;7.33;;;9.20;99.90;;;;;;5043204;28;20209;-54
2023/12/16 03:08:31;;;;;;;8.43;6.93;;;9.30;99.90;;;;;;5039820;28;20661;-54
2023/12/16 03:10:58;;;;;;;9.07;7.50;;;9.20;99.90;;;;;;5040516;28;20288;-54
2023/12/16 03:13:25;;;;;;;10.53;7.00;;;9.30;99.90;;;;;;5043477;28;20221;-55
2023/12/16 03:15:53;;;;;;;8.67;6.83;;;9.30;99.90;;;;;;5043440;28;20209;-55
2023/12/16 03:18:19;;;;;;;10.30;6.70;;;9.30;99.90;;;;;;5043403;28;20241;-55
2023/12/16 03:20:46;;;;;;;8.43;6.50;;;9.30;99.90;;;;;;5043071;28;20260;-54
2023/12/16 03:23:13;;;;;;;7.90;6.50;;;9.40;99.90;;;;;;5040324;28;20210;-54
2023/12/16 03:25:42;;;;;;;8.87;6.83;;;9.40;99.90;;;;;;5039883;28;20206;-56
2023/12/16 03:28:09;;;;;;;8.97;6.77;;;9.40;99.90;;;;;;5041764;28;20281;-54
2023/12/16 03:30:37;;;;;;;10.67;7.23;;;9.40;99.90;;;;;;5043139;28;20206;-54
2023/12/16 03:33:05;;;;;;;9.50;6.30;;;9.40;99.90;;;;;;5041593;28;20275;-56
2023/12/16 03:35:31;;;;;;;11.40;7.07;;;9.40;99.90;;;;;;5039587;28;20210;-56
2023/12/16 03:38:00;;;;;;;9.23;6.80;;;9.40;99.90;;;;;;5040176;28;20234;-55
2023/12/16 03:40:27;;;;;;;8.50;7.03;;;9.50;99.90;;;;;;5042662;28;20212;-54
2023/12/16 03:42:53;;;;;;;8.63;6.53;;;9.50;99.90;;;;;;5042791;28;20698;-54
2023/12/16 03:45:20;;;;;;;8.83;6.77;;;9.50;99.90;;;;;;5042987;28;20202;-54
2023/12/16 03:47:47;;;;;;;7.97;7.03;;;9.50;99.90;;;;;;5042854;28;20229;-55
2023/12/16 03:50:15;;;;;;;8.67;6.67;;;9.50;99.90;;;;;;5039999;28;20295;-55
2023/12/16 03:52:42;;;;;;;9.23;6.60;;;9.50;99.90;;;;;;5039392;28;20229;-54
2023/12/16 03:55:08;;;;;;;10.03;6.73;;;9.50;99.90;;;;;;5041219;28;20253;-55
2023/12/16 03:57:36;;;;;;;7.40;6.50;;;9.60;99.90;;;;;;5042733;28;20236;-55
2023/12/16 04:00:03;;;;;;;8.00;6.47;;;9.70;99.90;;;;;;5041593;28;20205;-54
2023/12/16 04:02:30;;;;;;;8.37;6.50;;;9.70;99.90;;;;;;5039452;28;20209;-56
2023/12/16 04:04:57;;;;;;;9.87;7.27;;;9.70;99.90;;;;;;5039761;28;20218;-54
2023/12/16 04:07:25;;;;;;;9.70;7.30;;;9.70;99.90;;;;;;5043008;28;20202;-54
2023/12/16 04:09:51;;;;;;;8.63;6.73;;;9.70;99.90;;;;;;5064374;22;20695;-60
2023/12/16 04:12:18;;;;;;;8.87;7.17;;;9.70;99.90;;;;;;5042514;28;20201;-60
2023/12/16 04:14:45;;;;;;;9.67;7.43;;;9.70;99.90;;;;;;5043000;28;20205;-60
2023/12/16 04:17:11;;;;;;;8.00;7.20;;;9.60;99.90;;;;;;5040592;28;20293;-60
2023/12/16 04:19:38;;;;;;;9.50;7.60;;;9.60;99.90;;;;;;5047576;28;20229;-60
2023/12/16 04:22:05;;;;;;;8.70;7.27;;;9.60;99.90;;;;;;5050960;28;20228;-61
2023/12/16 04:24:33;;;;;;;8.03;6.97;;;9.60;99.90;;;;;;5051090;28;20642;-60
2023/12/16 04:26:59;;;;;;;8.43;7.10;;;9.60;99.90;;;;;;5050907;28;20255;-60
2023/12/16 04:29:26;;;;;;;10.33;7.70;;;9.60;99.90;;;;;;5050710;28;20242;-60
2023/12/16 04:31:53;;;;;;;11.27;7.30;;;9.60;99.90;;;;;;5050704;28;20259;-61
2023/12/16 04:34:19;;;;;;;9.23;7.53;;;9.60;99.90;;;;;;5050677;28;20267;-60
2023/12/16 04:36:46;;;;;;;11.47;8.00;;;9.60;99.90;;;;;;5052034;28;20209;-63
2023/12/16 04:39:13;;;;;;;8.20;7.37;;;9.50;99.90;;;;;;5054542;28;20225;-63
2023/12/16 04:41:41;;;;;;;10.33;7.77;;;9.40;99.90;;;;;;5055268;28;20205;-60
2023/12/16 04:44:07;;;;;;;9.70;7.43;;;9.30;99.90;;;;;;5054746;28;20288;-61
2023/12/16 04:46:34;;;;;;;8.67;7.03;;;9.20;99.90;;;;;;5055022;28;20209;-60
2023/12/16 04:49:01;;;;;;;8.83;7.50;;;9.10;99.90;;;;;;5054530;28;20316;-62
2023/12/16 04:51:28;;;;;;;8.93;7.33;;;9.10;99.90;;;;;;5054865;28;20622;-60
2023/12/16 04:53:56;;;;;;;9.10;7.57;;;9.10;99.90;;;;;;5054537;28;20221;-60
2023/12/16 04:56:23;;;;;;;7.80;7.00;;;9.20;99.90;;;;;;5038624;28;20201;-60
2023/12/16 04:58:51;;;;;;;7.70;6.90;;;9.20;99.90;;;;;;5054279;28;20279;-63
2023/12/16 05:01:18;;;;;;;10.77;7.57;;;9.30;99.90;;;;;;5054625;28;20210;-60
2023/12/16 05:03:44;;;;;;;8.10;7.13;;;9.20;99.90;;;;;;5054571;28;20201;-61
2023/12/16 05:06:11;;;;;;;9.07;7.17;;;9.20;99.90;;;;;;5054385;28;20259;-61
2023/12/16 05:08:38;;;;;;;9.60;7.03;;;9.20;99.90;;;;;;5054253;28;20240;-61
2023/12/16 05:11:05;;;;;;;11.37;8.23;;;9.20;99.90;;;;;;5054193;28;20206;-61
2023/12/16 05:13:31;;;;;;;8.97;7.67;;;9.30;99.90;;;;;;5054370;28;20230;-61
2023/12/16 05:15:59;;;;;;;9.20;7.17;;;9.30;99.90;;;;;;5054346;28;20209;-61
2023/12/16 05:18:26;;;;;;;9.83;7.67;;;9.30;99.90;;;;;;5054234;28;20226;-61
2023/12/16 05:20:52;;;;;;;9.13;7.57;;;9.30;99.90;;;;;;5053942;28;20279;-61
2023/12/16 05:23:19;;;;;;;9.70;7.37;;;9.30;99.90;;;;;;5053901;28;20289;-61
2023/12/16 05:25:46;;;;;;;9.00;7.93;;;9.30;99.90;;;;;;5053942;28;20292;-61
2023/12/16 05:28:12;;;;;;;12.97;7.27;;;9.30;99.90;;;;;;5053880;28;20302;-61
2023/12/16 05:30:39;;;;;;;12.30;8.50;;;9.30;99.90;;;;;;5054002;28;20212;-61
2023/12/16 05:33:07;;;;;;;9.23;7.67;;;9.40;99.90;;;;;;5053660;28;20699;-61
2023/12/16 05:35:34;;;;;;;9.73;7.97;;;9.40;99.90;;;;;;5053866;28;20213;-61
2023/12/16 05:38:01;;;;;;;12.67;7.87;;;9.40;99.90;;;;;;5053674;28;20237;-61
2023/12/16 05:40:27;;;;;;;10.17;7.40;;;9.30;99.90;;;;;;5053676;28;20606;-60
2023/12/16 05:42:54;;;;;;;11.07;8.60;;;9.30;99.90;;;;;;5053817;28;20202;-62
2023/12/16 05:45:21;;;;;;;12.53;8.97;;;9.20;99.90;;;;;;5053650;28;20255;-61
2023/12/16 05:47:47;;;;;;;12.97;9.57;;;9.20;99.90;;;;;;5051744;28;20589;-63
2023/12/16 05:50:15;;;;;;;11.53;9.30;;;9.10;99.90;;;;;;5052895;28;20213;-61
2023/12/16 05:52:43;;;;;;;11.17;8.77;;;9.00;99.90;;;;;;5053406;28;20236;-61
2023/12/16 05:55:10;;;;;;;10.07;8.60;;;9.00;99.90;;;;;;5053288;28;20293;-61
2023/12/16 05:57:36;;;;;;;10.90;8.37;;;8.90;99.90;;;;;;5053674;28;20214;-61
2023/12/16 06:00:04;;;;;;;9.63;8.37;;;8.90;99.90;;;;;;5053209;28;20213;-60
2023/12/16 06:02:31;;;;;;;10.60;8.80;;;8.90;99.90;;;;;;5053183;28;20748;-62
2023/12/16 06:04:58;;;;;;;11.57;9.00;;;8.90;99.90;;;;;;5053259;28;20208;-61
2023/12/16 06:07:26;;;;;;;12.37;8.90;;;8.90;99.90;;;;;;5036945;28;20694;-61
2023/12/16 06:09:53;;;;;;;10.83;9.20;;;8.90;99.90;;;;;;5052793;28;20252;-61
2023/12/16 06:12:19;;;;;;;11.27;9.20;;;8.80;99.90;;;;;;5052804;28;20620;-61
2023/12/16 06:14:46;;;;;;;10.73;9.17;;;8.90;99.90;;;;;;5053279;28;20271;-61
2023/12/16 06:17:13;;;;;;;9.70;8.50;;;8.90;99.90;;;;;;5052888;28;20288;-61
2023/12/16 06:19:40;;;;;;;10.60;8.57;;;8.90;99.90;;;;;;5052804;28;20233;-61
2023/12/16 06:22:06;;;;;;;10.17;8.30;;;8.90;99.90;;;;;;5052848;28;20214;-60
2023/12/16 06:24:34;;;;;;;10.23;8.43;;;9.00;99.90;;;;;;5053259;28;20206;-62
2023/12/16 06:27:01;;;;;;;11.80;9.60;;;8.90;99.90;;;;;;5053031;28;20210;-62
2023/12/16 06:29:28;;;;;;;11.80;8.87;;;8.80;99.90;;;;;;5052804;28;20225;-61
2023/12/16 06:31:55;;;;;;;9.60;8.60;;;8.70;99.90;;;;;;5052741;28;20633;-62
2023/12/16 06:34:21;;;;;;;11.77;9.20;;;8.60;99.90;;;;;;5052776;28;20228;-61
2023/12/16 06:36:48;;;;;;;12.00;8.43;;;8.70;99.90;;;;;;5052999;28;20702;-61
2023/12/16 06:39:15;;;;;;;14.40;9.03;;;8.70;99.90;;;;;;5052674;28;20656;-61
2023/12/16 06:41:43;;;;;;;13.37;8.60;;;8.80;99.90;;;;;;5052834;28;20300;-61
2023/12/16 06:44:09;;;;;;;11.13;9.00;;;8.80;99.90;;;;;;5052538;28;20213;-61
2023/12/16 06:46:36;;;;;;;11.23;8.70;;;8.80;99.90;;;;;;5052692;28;20213;-61
2023/12/16 06:49:03;;;;;;;8.97;8.00;;;8.80;99.90;;;;;;5052056;28;20610;-61
2023/12/16 06:51:29;;;;;;;11.10;8.00;;;8.80;99.90;;;;;;5052312;28;20209;-61
2023/12/16 06:53:56;;;;;;;12.30;9.03;;;8.80;99.90;;;;;;5052263;28;20225;-61
2023/12/16 06:56:23;;;;;;;11.47;8.93;;;8.80;99.90;;;;;;5052691;28;20221;-61
2023/12/16 06:58:51;;;;;;;11.37;8.57;;;8.90;99.90;;;;;;5052282;28;20248;-62
2023/12/16 07:01:18;;;;;;;10.83;8.80;;;8.90;99.90;;;;;;5051927;28;20216;-62
2023/12/16 07:03:44;;;;;;;10.53;9.03;;;9.00;99.90;;;;;;5052091;28;20670;-61
2023/12/16 07:06:11;;;;;;;13.03;9.33;;;9.00;99.90;;;;;;5052035;28;20289;-61
2023/12/16 07:08:40;;;;;;;10.70;8.90;;;9.10;99.90;;;;;;5052200;28;20363;-62
2023/12/16 07:11:07;;;;;;;13.70;9.13;;;9.10;99.90;;;;;;5052054;28;20213;-61
2023/12/16 07:13:33;;;;;;;12.77;9.67;;;9.10;99.90;;;;;;5051780;28;20729;-60
2023/12/16 07:16:04;;;;;;;11.20;9.47;;;9.10;99.90;;;;;;5051982;28;20216;-61
2023/12/16 07:18:30;;;;;;;10.10;9.10;;;9.20;99.90;;;;;;5036550;28;20229;-61
2023/12/16 07:20:57;;;;;;;9.57;8.50;;;9.20;99.90;;;;;;5051993;28;20221;-61
2023/12/16 07:23:24;;;;;;;9.00;7.73;;;9.20;99.90;;;;;;5051829;28;20208;-61
2023/12/16 07:25:51;;;;;;;11.27;8.10;;;9.20;99.90;;;;;;5051762;28;20280;-61
2023/12/16 07:28:18;;;;;;;9.17;7.93;;;9.20;99.90;;;;;;5051466;28;20579;-62
2023/12/16 07:30:45;;;;;;;11.43;7.87;;;9.20;99.90;;;;;;5051232;28;20696;-61
2023/12/16 07:33:13;;;;;;;9.67;7.87;;;9.20;99.90;;;;;;5050887;28;20256;-61
2023/12/16 07:35:40;;;;;;;9.47;8.37;;;9.20;99.90;;;;;;5051681;28;20220;-61
2023/12/16 07:38:08;;;;;;;9.77;7.43;;;9.20;99.90;;;;;;5051269;28;20711;-61
2023/12/16 07:40:35;;;;;;;8.43;7.00;;;9.30;99.90;;;;;;5051253;28;20263;-62
2023/12/16 07:43:02;;;;;;;8.87;7.27;;;9.30;99.90;;;;;;5051196;28;20487;-62
2023/12/16 07:45:29;;;;;;;9.30;7.50;;;9.40;99.90;;;;;;5051183;28;20288;-61
2023/12/16 07:47:56;;;;;;;8.10;7.30;;;9.40;99.90;;;;;;5051476;28;20209;-60
2023/12/16 07:50:24;;;;;;;10.53;7.73;;;9.50;99.90;;;;;;5051337;28;20210;-61
2023/12/16 07:52:50;;;;;;;9.73;7.97;;;9.50;99.90;;;;;;5051275;28;20205;-62
2023/12/16 07:55:17;;;;;;;14.27;9.80;;;9.50;99.90;;;;;;5051224;28;20228;-61
2023/12/16 07:57:44;;;;;;;10.77;9.10;;;9.60;99.90;;;;;;5051171;28;20286;-61
2023/12/16 08:00:11;;;;;;;14.80;10.53;;;9.60;99.90;;;;;;5050840;28;20217;-61
2023/12/16 08:02:38;;;;;;;12.07;8.87;;;9.60;99.90;;;;;;5051164;28;20210;-60
2023/12/16 08:05:05;;;;;;;10.87;8.23;;;9.70;99.90;;;;;;5051116;28;20201;-59
2023/12/16 08:07:33;;;;;;;11.37;8.60;;;9.70;99.90;;;;;;5051093;28;20212;-61
2023/12/16 08:10:00;;;;;;;11.83;8.13;;;9.70;99.90;;;;;;5050574;28;20279;-61
2023/12/16 08:12:27;;;;;;;8.83;6.90;;;9.80;99.90;;;;;;5049997;28;20542;-61
2023/12/16 08:14:53;;;;;;;10.57;8.30;;;9.80;99.90;;;;;;5051025;28;20221;-61
2023/12/16 08:17:20;;;;;;;8.53;7.37;;;9.90;99.90;;;;;;5051108;28;20205;-60
2023/12/16 08:19:47;;;;;;;11.20;9.67;;;9.90;99.90;;;;;;5050771;28;20229;-59
2023/12/16 08:22:14;;;;;;;8.60;7.40;;;9.90;99.90;;;;;;5050588;28;20671;-60
2023/12/16 08:24:42;;;;;;;7.50;6.63;;;10.00;99.90;;;;;;5050958;28;20201;-60
2023/12/16 08:27:09;;;;;;;8.57;6.97;;;10.00;99.90;;;;;;5050595;28;20292;-60
2023/12/16 08:29:36;;;;;;;6.80;6.10;;;10.00;99.90;;;;;;5050843;28;20286;-59
2023/12/16 08:32:03;;;;;;;10.27;8.30;;;10.10;99.90;;;;;;5050795;28;20209;-59
2023/12/16 08:34:31;;;;;;;7.60;6.57;;;10.10;99.90;;;;;;5034770;28;20725;-59
2023/12/16 08:36:58;;;;;;;7.83;5.83;;;10.20;99.90;;;;;;5050655;28;20292;-59
2023/12/16 08:39:25;;;;;;;6.87;5.93;;;10.20;99.90;;;;;;5050269;28;20253;-59
2023/12/16 08:41:53;;;;;;;7.93;6.13;;;10.30;99.90;;;;;;5050392;28;20201;-59
2023/12/16 08:44:20;;;;;;;8.53;6.67;;;10.40;99.90;;;;;;5050606;28;20253;-58
2023/12/16 08:46:46;;;;;;;6.17;5.57;;;10.50;99.90;;;;;;5050550;28;20205;-59
2023/12/16 08:49:13;;;;;;;7.53;6.10;;;10.50;99.90;;;;;;5050015;28;20229;-59
2023/12/16 08:51:40;;;;;;;6.80;5.37;;;10.50;99.90;;;;;;5050523;28;20202;-59
2023/12/16 08:54:06;;;;;;;6.60;5.83;;;10.60;99.90;;;;;;5050125;28;20232;-59
2023/12/16 08:56:33;;;;;;;6.93;5.80;;;10.70;99.90;;;;;;5050445;28;20201;-59
2023/12/16 08:59:02;;;;;;;6.43;5.30;;;10.70;99.90;;;;;;5050447;28;20640;-60
2023/12/16 09:01:29;;;;;;;6.20;5.60;;;10.70;99.90;;;;;;5050304;28;20206;-59
2023/12/16 09:03:55;;;;;;;7.40;6.00;;;10.70;99.90;;;;;;5050397;28;20205;-60
2023/12/16 09:06:24;;;;;;;8.20;5.80;;;10.90;99.90;;;;;;5050374;28;20202;-59
2023/12/16 09:08:50;;;;;;;7.73;5.87;;;10.90;99.90;;;;;;5049903;28;20229;-60
2023/12/16 09:11:17;;;;;;;8.77;5.40;;;11.00;99.90;;;;;;5050354;28;20202;-60
2023/12/16 09:13:44;;;;;;;8.27;6.27;;;11.10;99.90;;;;;;5050071;28;20671;-60
2023/12/16 09:16:12;;;;;;;6.97;5.20;;;11.20;99.90;;;;;;5050247;28;20308;-59
2023/12/16 09:18:39;;;;;;;6.13;5.27;;;11.30;99.90;;;;;;5050206;28;20267;-59
2023/12/16 09:21:06;;;;;;;6.40;5.50;;;11.40;99.90;;;;;;5050214;28;20198;-59
2023/12/16 09:23:34;;;;;;;7.40;5.67;;;11.40;99.90;;;;;;5052394;28;20605;-59
2023/12/16 09:26:01;;;;;;;6.20;5.27;;;11.40;99.90;;;;;;5054200;28;20194;-60
2023/12/16 09:28:28;;;;;;;7.07;5.23;;;11.50;99.90;;;;;;5053796;28;20225;-60
2023/12/16 09:30:55;;;;;;;7.07;5.23;;;11.40;99.90;;;;;;5053738;28;20210;-60
2023/12/16 09:33:23;;;;;;;6.00;5.40;;;11.50;99.90;;;;;;5053542;28;20644;-58
2023/12/16 09:35:49;;;;;;;5.57;4.90;;;11.50;99.90;;;;;;5053634;28;20217;-58
2023/12/16 09:38:16;;;;;;;6.37;5.00;;;11.60;99.90;;;;;;5053670;28;20224;-59
2023/12/16 09:40:43;;;;;;;6.57;5.27;;;11.70;99.90;;;;;;5053550;28;20197;-59
2023/12/16 09:43:16;;;;;;;5.23;4.73;;;11.80;99.90;;;;;;5053498;28;20335;-58
2023/12/16 09:45:47;;;;;;;6.27;4.83;;;11.70;99.90;;;;;;5053619;28;20208;-60
2023/12/16 09:48:16;;;;;;;5.40;4.73;;;11.50;99.90;;;;;;5053182;28;20719;-60
2023/12/16 09:50:45;;;;;;;6.70;5.93;;;11.40;99.90;;;;;;5048333;28;20530;-63
2023/12/16 09:53:12;;;;;;;5.60;5.00;;;11.60;99.90;;;;;;5052374;28;20267;-62
2023/12/16 09:55:40;;;;;;;6.03;5.00;;;11.70;99.90;;;;;;5053337;28;20233;-63
2023/12/16 09:58:07;;;;;;;6.97;5.00;;;11.60;99.90;;;;;;5053142;28;20221;-61
2023/12/16 10:00:38;;;;;;;7.77;5.67;;;11.10;99.90;;;;;;5052701;28;20198;-63
2023/12/16 10:03:05;;;;;;;7.73;5.87;;;11.00;99.90;;;;;;5052792;28;20213;-61
2023/12/16 10:05:35;;;;;;;11.13;7.77;;;11.10;99.90;;;;;;5036731;28;20284;-61
2023/12/16 10:08:04;;;;;;;11.40;6.53;;;11.30;99.90;;;;;;5075341;22;20236;-58
2023/12/16 10:10:31;;;;;;;6.83;5.50;;;11.50;99.90;;;;;;5031477;28;20737;-56
2023/12/16 10:13:02;;;;;;;7.60;5.37;;;11.60;99.90;;;;;;5040939;28;20214;-58
2023/12/16 10:15:31;;;;;;;7.17;6.03;;;11.80;99.90;;;;;;5037186;28;20258;-59
2023/12/16 10:17:58;;;;;;;7.03;5.93;;;11.80;99.90;;;;;;5031600;28;20237;-58
2023/12/16 10:20:25;;;;;;;8.63;6.90;;;11.80;99.90;;;;;;5023303;28;20211;-55
2023/12/16 10:22:51;;;;;;;7.50;6.67;;;11.70;99.90;;;;;;5024266;28;20734;-54
2023/12/16 10:25:20;;;;;;;8.03;5.40;;;11.70;99.90;;;;;;5022632;28;20573;-55
2023/12/16 10:27:47;;;;;;;6.87;4.73;;;11.90;99.90;;;;;;5021548;28;20269;-54
2023/12/16 10:30:14;;;;;;;5.17;4.33;;;12.00;99.90;;;;;;5020799;28;20610;-56
2023/12/16 10:32:41;;;;;;;4.70;4.20;;;12.10;99.90;;;;;;5024064;28;20217;-55
2023/12/16 10:35:09;;;;;;;5.47;4.30;;;12.20;99.90;;;;;;5023082;28;20280;-56
2023/12/16 10:37:47;;;;;;;5.30;4.40;;;12.20;99.90;;;;;;5020715;28;20211;-55
2023/12/16 10:40:14;;;;;;;6.03;5.17;;;12.20;99.90;;;;;;5021028;28;20227;-57
2023/12/16 10:42:42;;;;;;;5.93;4.57;;;12.20;99.90;;;;;;5023210;28;20568;-57
2023/12/16 10:45:10;;;;;;;5.27;4.20;;;12.30;99.90;;;;;;5023515;28;20206;-57
2023/12/16 10:47:38;;;;;;;5.93;4.90;;;12.40;99.90;;;;;;5020547;28;20215;-57
2023/12/16 10:50:06;;;;;;;6.40;4.43;;;12.50;99.90;;;;;;5020470;28;20282;-56
2023/12/16 10:52:39;;;;;;;10.03;4.33;;;12.50;99.90;;;;;;5007891;28;20294;-52
2023/12/16 10:55:09;;;;;;;6.47;4.33;;;12.40;99.90;;;;;;5012440;28;20318;-53
2023/12/16 10:57:45;;;;;;;6.10;5.33;;;12.50;99.90;;;;;;5004968;28;20290;-53
2023/12/16 11:00:19;;;;;;;4.93;3.83;;;12.60;99.90;;;;;;5012610;28;20234;-53
2023/12/16 11:02:56;;;;;;;4.77;3.77;;;12.70;99.90;;;;;;5012512;28;20202;-53
2023/12/16 11:05:28;;;;;;;5.47;4.43;;;12.70;99.90;;;;;;5012105;28;20194;-55
2023/12/16 11:08:01;;;;;;;5.87;4.00;;;12.60;99.90;;;;;;5012748;28;20234;-56
2023/12/16 11:10:29;;;;;;;7.60;4.53;;;12.50;99.90;;;;;;5012247;28;20230;-55
2023/12/16 11:12:58;;;;;;;5.47;4.63;;;12.40;99.90;;;;;;5009536;28;20242;-52
2023/12/16 11:15:25;;;;;;;5.40;4.40;;;12.40;99.90;;;;;;5011898;28;20231;-54
2023/12/16 11:17:57;;;;;;;6.00;4.23;;;12.50;99.90;;;;;;5012157;28;20211;-53
2023/12/16 11:20:32;;;;;;;5.17;4.30;;;12.50;99.90;;;;;;5012575;28;20211;-53
2023/12/16 11:23:00;;;;;;;4.87;4.20;;;12.60;99.90;;;;;;5012194;28;20202;-53
2023/12/16 11:25:27;;;;;;;4.50;4.10;;;12.50;99.90;;;;;;5012339;28;20211;-55
2023/12/16 11:27:58;;;;;;;6.13;4.87;;;12.50;99.90;;;;;;5012140;28;20697;-53
2023/12/16 11:30:27;;;;;;;5.40;4.57;;;12.50;99.90;;;;;;5011840;28;20215;-53
2023/12/16 11:32:55;;;;;;;5.70;4.17;;;12.20;99.90;;;;;;5012065;28;20230;-54
2023/12/16 11:35:45;;;;;;;6.70;4.70;;;12.00;99.90;;;;;;5011515;28;20226;-53
2023/12/16 11:38:42;;;;;;;6.23;4.47;;;11.80;99.90;;;;;;5008102;28;20673;-53
2023/12/16 11:41:10;;;;;;;9.00;6.03;;;11.90;99.90;;;;;;5011745;28;20676;-56
2023/12/16 11:43:49;;;;;;;9.97;6.70;;;12.00;99.90;;;;;;5012018;28;20401;-53
2023/12/16 11:46:38;;;;;;;7.17;5.53;;;12.10;99.90;;;;;;5011027;28;20203;-53
2023/12/16 11:49:10;;;;;;;6.40;5.70;;;12.20;99.90;;;;;;5011816;28;20257;-54
2023/12/16 11:51:38;;;;;;;5.90;5.03;;;12.30;99.90;;;;;;5012011;28;20230;-53
2023/12/16 11:54:06;;;;;;;8.03;5.70;;;12.50;99.90;;;;;;5012299;28;20214;-54
2023/12/16 11:56:34;;;;;;;7.37;5.73;;;12.50;99.90;;;;;;5011817;28;20219;-53
2023/12/16 11:59:02;;;;;;;8.27;5.67;;;12.50;99.90;;;;;;5012104;28;20254;-53
2023/12/16 12:01:31;;;;;;;6.70;5.83;;;12.40;99.90;;;;;;5012505;28;20214;-53
2023/12/16 12:03:59;;;;;;;9.33;6.20;;;11.80;99.90;;;;;;5011389;28;20238;-53
2023/12/16 12:06:26;;;;;;;8.73;6.50;;;11.10;99.90;;;;;;5011746;28;20286;-53
2023/12/16 12:08:53;;;;;;;8.80;6.73;;;11.10;99.90;;;;;;5010956;28;20777;-52
2023/12/16 12:11:21;;;;;;;6.80;5.90;;;11.30;99.90;;;;;;5011122;28;20210;-52
2023/12/16 12:13:50;;;;;;;8.67;6.47;;;11.50;99.90;;;;;;5011134;28;20814;-53
2023/12/16 12:16:18;;;;;;;13.13;9.33;;;11.60;99.90;;;;;;5010536;28;20219;-53
2023/12/16 12:18:44;;;;;;;10.27;8.43;;;11.80;99.90;;;;;;5011058;28;20227;-53
2023/12/16 12:21:11;;;;;;;7.47;5.87;;;11.90;99.90;;;;;;5010730;28;20669;-53
2023/12/16 12:23:40;;;;;;;7.00;5.97;;;11.90;99.90;;;;;;5010769;28;20581;-53
2023/12/16 12:26:07;;;;;;;9.90;7.00;;;11.80;99.90;;;;;;5010605;28;20731;-53
2023/12/16 12:28:34;;;;;;;8.73;7.43;;;11.80;99.90;;;;;;5010508;28;20269;-60
2023/12/16 12:31:02;;;;;;;8.30;7.40;;;11.90;99.90;;;;;;5011097;28;20291;-54
2023/12/16 12:33:31;;;;;;;9.47;6.07;;;12.00;99.90;;;;;;5010349;28;20267;-55
2023/12/16 12:35:58;;;;;;;6.73;6.03;;;11.80;99.90;;;;;;5011606;28;20226;-57
2023/12/16 12:38:24;;;;;;;8.63;6.57;;;11.70;99.90;;;;;;5017426;28;20237;-60
2023/12/16 12:40:58;;;;;;;8.73;6.77;;;11.80;99.90;;;;;;5018442;28;20236;-57
2023/12/16 12:43:29;;;;;;;8.30;6.23;;;11.90;99.90;;;;;;5018780;28;20302;-57
2023/12/16 12:46:06;;;;;;;8.30;6.60;;;12.00;99.90;;;;;;5016719;28;20207;-58
2023/12/16 12:48:34;;;;;;;7.70;6.90;;;12.10;99.90;;;;;;5021956;28;20275;-55
2023/12/16 12:51:06;;;;;;;8.07;6.40;;;12.00;99.90;;;;;;5015397;28;20214;-56